sensor_id;sensor_type;location;lat;lon;timestamp;P1;durP1;ratioP1;P2;durP2;ratioP2
56927;SDS011;60850;52.502;13.426;2024-01-10T00:01:52;53.22;;;17.63;;
56927;SDS011;60850;52.502;13.426;2024-01-10T00:04:19;52.40;;;19.45;;
56927;SDS011;60850;52.502;13.426;2024-01-10T00:06:46;44.13;;;18.67;;
56927;SDS011;60850;52.502;13.426;2024-01-10T00:09:12;54.53;;;20.95;;
56927;SDS011;60850;52.502;13.426;2024-01-10T00:11:40;61.65;;;22.17;;
56927;SDS011;60850;52.502;13.426;2024-01-10T00:14:06;54.28;;;20.80;;
56927;SDS011;60850;52.502;13.426;2024-01-10T00:16:36;53.42;;;20.08;;
56927;SDS011;60850;52.502;13.426;2024-01-10T00:19:03;53.25;;;20.33;;
56927;SDS011;60850;52.502;13.426;2024-01-10T00:21:30;54.42;;;21.27;;
56927;SDS011;60850;52.502;13.426;2024-01-10T00:23:57;52.55;;;20.95;;
56927;SDS011;60850;52.502;13.426;2024-01-10T00:26:24;43.33;;;17.10;;
56927;SDS011;60850;52.502;13.426;2024-01-10T00:28:50;54.03;;;21.50;;
56927;SDS011;60850;52.502;13.426;2024-01-10T00:31:17;45.53;;;20.58;;
56927;SDS011;60850;52.502;13.426;2024-01-10T00:33:46;67.78;;;22.92;;
56927;SDS011;60850;52.502;13.426;2024-01-10T00:36:13;57.35;;;20.55;;
56927;SDS011;60850;52.502;13.426;2024-01-10T00:38:40;52.15;;;19.27;;
56927;SDS011;60850;52.502;13.426;2024-01-10T00:41:07;59.75;;;21.85;;
56927;SDS011;60850;52.502;13.426;2024-01-10T00:43:34;56.88;;;21.08;;
56927;SDS011;60850;52.502;13.426;2024-01-10T00:46:01;38.92;;;19.27;;
56927;SDS011;60850;52.502;13.426;2024-01-10T00:48:28;40.15;;;16.70;;
56927;SDS011;60850;52.502;13.426;2024-01-10T00:50:56;50.22;;;19.00;;
56927;SDS011;60850;52.502;13.426;2024-01-10T00:53:23;54.63;;;21.75;;
56927;SDS011;60850;52.502;13.426;2024-01-10T00:55:50;55.08;;;19.05;;
56927;SDS011;60850;52.502;13.426;2024-01-10T00:58:18;54.15;;;19.55;;
56927;SDS011;60850;52.502;13.426;2024-01-10T01:00:46;55.80;;;19.80;;
56927;SDS011;60850;52.502;13.426;2024-01-10T01:03:12;61.08;;;20.42;;
56927;SDS011;60850;52.502;13.426;2024-01-10T01:05:40;49.83;;;20.27;;
56927;SDS011;60850;52.502;13.426;2024-01-10T01:08:08;58.40;;;21.00;;
56927;SDS011;60850;52.502;13.426;2024-01-10T01:10:35;49.78;;;20.15;;
56927;SDS011;60850;52.502;13.426;2024-01-10T01:13:02;62.20;;;21.60;;
56927;SDS011;60850;52.502;13.426;2024-01-10T01:15:29;59.25;;;21.00;;
56927;SDS011;60850;52.502;13.426;2024-01-10T01:17:56;47.20;;;20.05;;
56927;SDS011;60850;52.502;13.426;2024-01-10T01:20:32;64.30;;;22.42;;
56927;SDS011;60850;52.502;13.426;2024-01-10T01:22:59;59.40;;;20.35;;
56927;SDS011;60850;52.502;13.426;2024-01-10T01:25:28;53.30;;;22.85;;
56927;SDS011;60850;52.502;13.426;2024-01-10T01:27:54;63.17;;;20.17;;
56927;SDS011;60850;52.502;13.426;2024-01-10T01:30:22;58.05;;;20.08;;
56927;SDS011;60850;52.502;13.426;2024-01-10T01:32:48;62.72;;;21.65;;
56927;SDS011;60850;52.502;13.426;2024-01-10T01:35:15;51.63;;;20.10;;
56927;SDS011;60850;52.502;13.426;2024-01-10T01:37:46;53.80;;;20.73;;
56927;SDS011;60850;52.502;13.426;2024-01-10T01:40:13;56.00;;;19.35;;
56927;SDS011;60850;52.502;13.426;2024-01-10T01:42:42;50.45;;;19.15;;
56927;SDS011;60850;52.502;13.426;2024-01-10T01:45:10;43.92;;;16.30;;
56927;SDS011;60850;52.502;13.426;2024-01-10T01:47:38;58.65;;;19.33;;
56927;SDS011;60850;52.502;13.426;2024-01-10T01:50:06;51.40;;;18.90;;
56927;SDS011;60850;52.502;13.426;2024-01-10T01:52:33;56.17;;;19.42;;
56927;SDS011;60850;52.502;13.426;2024-01-10T01:55:01;46.60;;;19.33;;
56927;SDS011;60850;52.502;13.426;2024-01-10T01:57:28;55.97;;;21.27;;
56927;SDS011;60850;52.502;13.426;2024-01-10T01:59:57;56.33;;;20.33;;
56927;SDS011;60850;52.502;13.426;2024-01-10T02:02:24;59.83;;;21.00;;
56927;SDS011;60850;52.502;13.426;2024-01-10T02:04:51;52.75;;;20.08;;
56927;SDS011;60850;52.502;13.426;2024-01-10T02:07:18;51.40;;;20.15;;
56927;SDS011;60850;52.502;13.426;2024-01-10T02:09:45;47.55;;;18.70;;
56927;SDS011;60850;52.502;13.426;2024-01-10T02:12:11;64.00;;;21.63;;
56927;SDS011;60850;52.502;13.426;2024-01-10T02:14:39;55.03;;;21.27;;
56927;SDS011;60850;52.502;13.426;2024-01-10T02:17:07;52.10;;;18.63;;
56927;SDS011;60850;52.502;13.426;2024-01-10T02:19:34;50.67;;;19.95;;
56927;SDS011;60850;52.502;13.426;2024-01-10T02:22:01;43.70;;;17.13;;
56927;SDS011;60850;52.502;13.426;2024-01-10T02:24:28;58.90;;;21.30;;
56927;SDS011;60850;52.502;13.426;2024-01-10T02:26:56;45.10;;;19.02;;
56927;SDS011;60850;52.502;13.426;2024-01-10T02:29:23;56.95;;;21.55;;
56927;SDS011;60850;52.502;13.426;2024-01-10T02:31:50;55.15;;;20.40;;
56927;SDS011;60850;52.502;13.426;2024-01-10T02:34:17;56.10;;;18.92;;
56927;SDS011;60850;52.502;13.426;2024-01-10T02:36:44;45.03;;;20.90;;
56927;SDS011;60850;52.502;13.426;2024-01-10T02:39:11;40.25;;;18.27;;
56927;SDS011;60850;52.502;13.426;2024-01-10T02:41:38;52.67;;;18.65;;
56927;SDS011;60850;52.502;13.426;2024-01-10T02:44:07;57.05;;;19.80;;
56927;SDS011;60850;52.502;13.426;2024-01-10T02:46:33;50.50;;;19.50;;
56927;SDS011;60850;52.502;13.426;2024-01-10T02:49:00;58.65;;;19.98;;
56927;SDS011;60850;52.502;13.426;2024-01-10T02:51:27;51.55;;;20.65;;
56927;SDS011;60850;52.502;13.426;2024-01-10T02:53:55;44.72;;;18.05;;
56927;SDS011;60850;52.502;13.426;2024-01-10T02:56:22;50.42;;;18.50;;
56927;SDS011;60850;52.502;13.426;2024-01-10T02:58:49;45.60;;;17.88;;
56927;SDS011;60850;52.502;13.426;2024-01-10T03:01:17;54.20;;;18.75;;
56927;SDS011;60850;52.502;13.426;2024-01-10T03:03:44;56.00;;;19.00;;
56927;SDS011;60850;52.502;13.426;2024-01-10T03:06:11;57.60;;;22.02;;
56927;SDS011;60850;52.502;13.426;2024-01-10T03:08:38;55.47;;;19.52;;
56927;SDS011;60850;52.502;13.426;2024-01-10T03:11:04;56.88;;;19.45;;
56927;SDS011;60850;52.502;13.426;2024-01-10T03:13:31;56.83;;;20.30;;
56927;SDS011;60850;52.502;13.426;2024-01-10T03:15:58;59.13;;;19.85;;
56927;SDS011;60850;52.502;13.426;2024-01-10T03:18:27;49.85;;;19.85;;
56927;SDS011;60850;52.502;13.426;2024-01-10T03:20:54;60.80;;;20.63;;
56927;SDS011;60850;52.502;13.426;2024-01-10T03:23:21;46.90;;;18.52;;
56927;SDS011;60850;52.502;13.426;2024-01-10T03:25:48;43.65;;;14.07;;
56927;SDS011;60850;52.502;13.426;2024-01-10T03:28:15;46.65;;;17.42;;
56927;SDS011;60850;52.502;13.426;2024-01-10T03:30:43;43.00;;;18.45;;
56927;SDS011;60850;52.502;13.426;2024-01-10T03:33:10;36.63;;;16.88;;
56927;SDS011;60850;52.502;13.426;2024-01-10T03:35:38;39.10;;;13.95;;
56927;SDS011;60850;52.502;13.426;2024-01-10T03:38:05;44.45;;;16.85;;
56927;SDS011;60850;52.502;13.426;2024-01-10T03:40:32;50.20;;;19.95;;
56927;SDS011;60850;52.502;13.426;2024-01-10T03:42:59;53.28;;;19.67;;
56927;SDS011;60850;52.502;13.426;2024-01-10T03:45:26;52.40;;;18.02;;
56927;SDS011;60850;52.502;13.426;2024-01-10T03:47:53;49.03;;;18.27;;
56927;SDS011;60850;52.502;13.426;2024-01-10T03:50:20;61.25;;;19.95;;
56927;SDS011;60850;52.502;13.426;2024-01-10T03:52:49;48.85;;;18.63;;
56927;SDS011;60850;52.502;13.426;2024-01-10T03:55:15;44.28;;;15.52;;
56927;SDS011;60850;52.502;13.426;2024-01-10T03:57:42;50.05;;;18.50;;
56927;SDS011;60850;52.502;13.426;2024-01-10T04:00:09;52.00;;;19.77;;
56927;SDS011;60850;52.502;13.426;2024-01-10T04:02:37;52.92;;;19.52;;
56927;SDS011;60850;52.502;13.426;2024-01-10T04:05:06;52.67;;;20.75;;
56927;SDS011;60850;52.502;13.426;2024-01-10T04:07:34;42.80;;;17.75;;
56927;SDS011;60850;52.502;13.426;2024-01-10T04:10:04;52.30;;;17.67;;
56927;SDS011;60850;52.502;13.426;2024-01-10T04:12:35;39.97;;;15.63;;
56927;SDS011;60850;52.502;13.426;2024-01-10T04:15:03;51.17;;;19.63;;
56927;SDS011;60850;52.502;13.426;2024-01-10T04:17:31;56.67;;;19.02;;
56927;SDS011;60850;52.502;13.426;2024-01-10T04:19:57;41.53;;;17.58;;
56927;SDS011;60850;52.502;13.426;2024-01-10T04:22:24;48.88;;;20.25;;
56927;SDS011;60850;52.502;13.426;2024-01-10T04:24:51;57.97;;;21.60;;
56927;SDS011;60850;52.502;13.426;2024-01-10T04:27:19;55.80;;;20.02;;
56927;SDS011;60850;52.502;13.426;2024-01-10T04:29:46;46.42;;;16.85;;
56927;SDS011;60850;52.502;13.426;2024-01-10T04:32:13;49.13;;;19.48;;
56927;SDS011;60850;52.502;13.426;2024-01-10T04:34:40;51.85;;;19.02;;
56927;SDS011;60850;52.502;13.426;2024-01-10T04:37:07;55.60;;;20.95;;
56927;SDS011;60850;52.502;13.426;2024-01-10T04:39:34;54.38;;;20.30;;
56927;SDS011;60850;52.502;13.426;2024-01-10T04:42:01;56.28;;;19.52;;
56927;SDS011;60850;52.502;13.426;2024-01-10T04:44:30;56.22;;;21.02;;
56927;SDS011;60850;52.502;13.426;2024-01-10T04:46:57;56.25;;;20.67;;
56927;SDS011;60850;52.502;13.426;2024-01-10T04:49:23;44.70;;;18.23;;
56927;SDS011;60850;52.502;13.426;2024-01-10T04:51:50;42.55;;;18.20;;
56927;SDS011;60850;52.502;13.426;2024-01-10T04:54:17;42.47;;;17.73;;
56927;SDS011;60850;52.502;13.426;2024-01-10T04:56:44;61.72;;;20.83;;
56927;SDS011;60850;52.502;13.426;2024-01-10T04:59:11;47.33;;;16.05;;
56927;SDS011;60850;52.502;13.426;2024-01-10T05:01:40;62.67;;;20.80;;
56927;SDS011;60850;52.502;13.426;2024-01-10T05:04:06;51.58;;;18.52;;
56927;SDS011;60850;52.502;13.426;2024-01-10T05:06:33;65.88;;;21.83;;
56927;SDS011;60850;52.502;13.426;2024-01-10T05:09:00;53.08;;;18.55;;
56927;SDS011;60850;52.502;13.426;2024-01-10T05:11:27;45.50;;;17.63;;
56927;SDS011;60850;52.502;13.426;2024-01-10T05:13:55;47.15;;;18.85;;
56927;SDS011;60850;52.502;13.426;2024-01-10T05:16:22;57.83;;;20.40;;
56927;SDS011;60850;52.502;13.426;2024-01-10T05:18:50;46.20;;;18.65;;
56927;SDS011;60850;52.502;13.426;2024-01-10T05:21:17;39.35;;;16.15;;
56927;SDS011;60850;52.502;13.426;2024-01-10T05:23:44;44.03;;;17.00;;
56927;SDS011;60850;52.502;13.426;2024-01-10T05:26:11;57.28;;;20.48;;
56927;SDS011;60850;52.502;13.426;2024-01-10T05:28:38;43.97;;;17.67;;
56927;SDS011;60850;52.502;13.426;2024-01-10T05:31:05;45.35;;;17.98;;
56927;SDS011;60850;52.502;13.426;2024-01-10T05:33:31;56.28;;;18.95;;
56927;SDS011;60850;52.502;13.426;2024-01-10T05:36:00;50.58;;;17.45;;
56927;SDS011;60850;52.502;13.426;2024-01-10T05:38:27;56.38;;;20.95;;
56927;SDS011;60850;52.502;13.426;2024-01-10T05:40:54;50.67;;;18.42;;
56927;SDS011;60850;52.502;13.426;2024-01-10T05:43:20;62.33;;;20.90;;
56927;SDS011;60850;52.502;13.426;2024-01-10T05:45:48;49.83;;;20.35;;
56927;SDS011;60850;52.502;13.426;2024-01-10T05:48:14;50.95;;;17.77;;
56927;SDS011;60850;52.502;13.426;2024-01-10T05:50:42;50.63;;;20.38;;
56927;SDS011;60850;52.502;13.426;2024-01-10T05:53:11;57.35;;;20.45;;
56927;SDS011;60850;52.502;13.426;2024-01-10T05:55:42;48.88;;;19.30;;
56927;SDS011;60850;52.502;13.426;2024-01-10T05:58:09;57.83;;;21.38;;
56927;SDS011;60850;52.502;13.426;2024-01-10T06:00:36;56.92;;;19.35;;
56927;SDS011;60850;52.502;13.426;2024-01-10T06:03:04;54.72;;;20.42;;
56927;SDS011;60850;52.502;13.426;2024-01-10T06:05:31;58.38;;;18.95;;
56927;SDS011;60850;52.502;13.426;2024-01-10T06:07:58;57.33;;;21.75;;
56927;SDS011;60850;52.502;13.426;2024-01-10T06:10:26;59.53;;;21.17;;
56927;SDS011;60850;52.502;13.426;2024-01-10T06:12:54;52.05;;;20.13;;
56927;SDS011;60850;52.502;13.426;2024-01-10T06:15:21;50.92;;;18.08;;
56927;SDS011;60850;52.502;13.426;2024-01-10T06:17:48;60.50;;;22.83;;
56927;SDS011;60850;52.502;13.426;2024-01-10T06:20:16;56.58;;;21.95;;
56927;SDS011;60850;52.502;13.426;2024-01-10T06:22:43;48.58;;;18.50;;
56927;SDS011;60850;52.502;13.426;2024-01-10T06:25:12;58.47;;;22.15;;
56927;SDS011;60850;52.502;13.426;2024-01-10T06:27:41;56.13;;;19.27;;
56927;SDS011;60850;52.502;13.426;2024-01-10T06:30:08;58.47;;;21.02;;
56927;SDS011;60850;52.502;13.426;2024-01-10T06:32:36;63.30;;;21.50;;
56927;SDS011;60850;52.502;13.426;2024-01-10T06:35:03;55.50;;;20.52;;
56927;SDS011;60850;52.502;13.426;2024-01-10T06:37:30;58.97;;;20.92;;
56927;SDS011;60850;52.502;13.426;2024-01-10T06:39:57;74.35;;;24.35;;
56927;SDS011;60850;52.502;13.426;2024-01-10T06:42:24;50.63;;;19.80;;
56927;SDS011;60850;52.502;13.426;2024-01-10T06:44:53;61.63;;;19.13;;
56927;SDS011;60850;52.502;13.426;2024-01-10T06:47:20;53.17;;;20.55;;
56927;SDS011;60850;52.502;13.426;2024-01-10T06:49:47;65.20;;;21.13;;
56927;SDS011;60850;52.502;13.426;2024-01-10T06:52:14;54.03;;;20.23;;
56927;SDS011;60850;52.502;13.426;2024-01-10T06:54:42;51.17;;;20.02;;
56927;SDS011;60850;52.502;13.426;2024-01-10T06:57:09;55.72;;;20.45;;
56927;SDS011;60850;52.502;13.426;2024-01-10T06:59:36;52.10;;;19.45;;
56927;SDS011;60850;52.502;13.426;2024-01-10T07:02:04;52.90;;;21.42;;
56927;SDS011;60850;52.502;13.426;2024-01-10T07:04:32;59.55;;;22.75;;
56927;SDS011;60850;52.502;13.426;2024-01-10T07:06:58;48.33;;;17.88;;
56927;SDS011;60850;52.502;13.426;2024-01-10T07:09:26;49.60;;;19.80;;
56927;SDS011;60850;52.502;13.426;2024-01-10T07:11:52;60.40;;;20.85;;
56927;SDS011;60850;52.502;13.426;2024-01-10T07:14:19;54.42;;;19.95;;
56927;SDS011;60850;52.502;13.426;2024-01-10T07:16:46;50.58;;;19.73;;
56927;SDS011;60850;52.502;13.426;2024-01-10T07:19:15;55.88;;;20.50;;
56927;SDS011;60850;52.502;13.426;2024-01-10T07:21:42;64.43;;;22.58;;
56927;SDS011;60850;52.502;13.426;2024-01-10T07:24:09;53.55;;;21.83;;
56927;SDS011;60850;52.502;13.426;2024-01-10T07:26:37;63.65;;;22.00;;
56927;SDS011;60850;52.502;13.426;2024-01-10T07:29:04;57.70;;;21.17;;
56927;SDS011;60850;52.502;13.426;2024-01-10T07:31:33;61.63;;;21.95;;
56927;SDS011;60850;52.502;13.426;2024-01-10T07:34:00;64.70;;;23.65;;
56927;SDS011;60850;52.502;13.426;2024-01-10T07:36:31;67.70;;;23.45;;
56927;SDS011;60850;52.502;13.426;2024-01-10T07:38:59;60.85;;;21.33;;
56927;SDS011;60850;52.502;13.426;2024-01-10T07:41:26;63.78;;;21.60;;
56927;SDS011;60850;52.502;13.426;2024-01-10T07:43:53;61.85;;;22.35;;
56927;SDS011;60850;52.502;13.426;2024-01-10T07:46:20;55.97;;;21.83;;
56927;SDS011;60850;52.502;13.426;2024-01-10T07:48:48;54.10;;;19.92;;
56927;SDS011;60850;52.502;13.426;2024-01-10T07:51:15;62.50;;;23.02;;
56927;SDS011;60850;52.502;13.426;2024-01-10T07:53:44;52.97;;;20.77;;
56927;SDS011;60850;52.502;13.426;2024-01-10T07:56:10;57.67;;;18.70;;
56927;SDS011;60850;52.502;13.426;2024-01-10T07:58:38;52.17;;;20.55;;
56927;SDS011;60850;52.502;13.426;2024-01-10T08:01:05;63.25;;;23.27;;
56927;SDS011;60850;52.502;13.426;2024-01-10T08:03:32;47.17;;;18.80;;
56927;SDS011;60850;52.502;13.426;2024-01-10T08:05:59;42.85;;;18.52;;
56927;SDS011;60850;52.502;13.426;2024-01-10T08:08:26;61.40;;;21.15;;
56927;SDS011;60850;52.502;13.426;2024-01-10T08:10:55;65.78;;;24.02;;
56927;SDS011;60850;52.502;13.426;2024-01-10T08:13:22;63.05;;;24.83;;
56927;SDS011;60850;52.502;13.426;2024-01-10T08:15:49;52.53;;;22.00;;
56927;SDS011;60850;52.502;13.426;2024-01-10T08:18:16;67.63;;;23.38;;
56927;SDS011;60850;52.502;13.426;2024-01-10T08:20:43;68.50;;;23.05;;
56927;SDS011;60850;52.502;13.426;2024-01-10T08:23:10;46.92;;;21.02;;
56927;SDS011;60850;52.502;13.426;2024-01-10T08:25:37;55.17;;;20.40;;
56927;SDS011;60850;52.502;13.426;2024-01-10T08:28:07;58.85;;;19.08;;
56927;SDS011;60850;52.502;13.426;2024-01-10T08:30:35;54.83;;;20.52;;
56927;SDS011;60850;52.502;13.426;2024-01-10T08:33:02;64.93;;;22.38;;
56927;SDS011;60850;52.502;13.426;2024-01-10T08:35:30;66.18;;;21.48;;
56927;SDS011;60850;52.502;13.426;2024-01-10T08:37:57;57.63;;;22.50;;
56927;SDS011;60850;52.502;13.426;2024-01-10T08:40:24;64.65;;;24.05;;
56927;SDS011;60850;52.502;13.426;2024-01-10T08:42:52;48.88;;;21.15;;
56927;SDS011;60850;52.502;13.426;2024-01-10T08:45:20;53.35;;;20.42;;
56927;SDS011;60850;52.502;13.426;2024-01-10T08:47:47;62.63;;;21.88;;
56927;SDS011;60850;52.502;13.426;2024-01-10T08:50:14;68.13;;;24.25;;
56927;SDS011;60850;52.502;13.426;2024-01-10T08:52:41;62.22;;;23.52;;
56927;SDS011;60850;52.502;13.426;2024-01-10T08:55:08;56.03;;;21.80;;
56927;SDS011;60850;52.502;13.426;2024-01-10T08:57:35;68.80;;;23.88;;
56927;SDS011;60850;52.502;13.426;2024-01-10T09:00:02;52.33;;;18.85;;
56927;SDS011;60850;52.502;13.426;2024-01-10T09:02:33;56.08;;;22.58;;
56927;SDS011;60850;52.502;13.426;2024-01-10T09:05:02;70.30;;;24.35;;
56927;SDS011;60850;52.502;13.426;2024-01-10T09:07:29;66.03;;;23.75;;
56927;SDS011;60850;52.502;13.426;2024-01-10T09:09:56;63.75;;;22.10;;
56927;SDS011;60850;52.502;13.426;2024-01-10T09:12:24;61.05;;;24.55;;
56927;SDS011;60850;52.502;13.426;2024-01-10T09:14:50;69.82;;;24.83;;
56927;SDS011;60850;52.502;13.426;2024-01-10T09:17:17;70.00;;;23.95;;
56927;SDS011;60850;52.502;13.426;2024-01-10T09:19:45;68.13;;;23.77;;
56927;SDS011;60850;52.502;13.426;2024-01-10T09:22:12;66.28;;;24.52;;
56927;SDS011;60850;52.502;13.426;2024-01-10T09:24:39;53.95;;;21.95;;
56927;SDS011;60850;52.502;13.426;2024-01-10T09:27:06;56.42;;;21.45;;
56927;SDS011;60850;52.502;13.426;2024-01-10T09:29:34;53.38;;;20.05;;
56927;SDS011;60850;52.502;13.426;2024-01-10T09:32:02;64.93;;;20.80;;
56927;SDS011;60850;52.502;13.426;2024-01-10T09:34:29;56.05;;;19.77;;
56927;SDS011;60850;52.502;13.426;2024-01-10T09:36:59;55.33;;;20.42;;
56927;SDS011;60850;52.502;13.426;2024-01-10T09:39:26;61.83;;;22.92;;
56927;SDS011;60850;52.502;13.426;2024-01-10T09:41:53;53.83;;;20.95;;
56927;SDS011;60850;52.502;13.426;2024-01-10T09:44:20;58.03;;;22.48;;
56927;SDS011;60850;52.502;13.426;2024-01-10T09:46:49;66.90;;;22.92;;
56927;SDS011;60850;52.502;13.426;2024-01-10T09:49:18;63.13;;;20.60;;
56927;SDS011;60850;52.502;13.426;2024-01-10T09:51:47;54.38;;;18.65;;
56927;SDS011;60850;52.502;13.426;2024-01-10T09:54:15;42.00;;;16.92;;
56927;SDS011;60850;52.502;13.426;2024-01-10T09:56:45;58.65;;;20.00;;
56927;SDS011;60850;52.502;13.426;2024-01-10T09:59:12;44.00;;;16.25;;
56927;SDS011;60850;52.502;13.426;2024-01-10T10:01:39;44.47;;;16.48;;
56927;SDS011;60850;52.502;13.426;2024-01-10T10:04:06;66.55;;;20.17;;
56927;SDS011;60850;52.502;13.426;2024-01-10T10:06:36;60.50;;;18.75;;
56927;SDS011;60850;52.502;13.426;2024-01-10T10:09:03;43.88;;;16.67;;
56927;SDS011;60850;52.502;13.426;2024-01-10T10:11:31;59.28;;;19.13;;
56927;SDS011;60850;52.502;13.426;2024-01-10T10:14:13;51.70;;;17.45;;
56927;SDS011;60850;52.502;13.426;2024-01-10T10:16:41;49.60;;;19.05;;
56927;SDS011;60850;52.502;13.426;2024-01-10T10:19:08;47.72;;;18.77;;
56927;SDS011;60850;52.502;13.426;2024-01-10T10:21:37;49.47;;;19.88;;
56927;SDS011;60850;52.502;13.426;2024-01-10T10:24:04;49.67;;;18.90;;
56927;SDS011;60850;52.502;13.426;2024-01-10T10:26:34;53.10;;;19.92;;
56927;SDS011;60850;52.502;13.426;2024-01-10T10:29:01;47.53;;;18.58;;
56927;SDS011;60850;52.502;13.426;2024-01-10T10:31:29;38.55;;;16.10;;
56927;SDS011;60850;52.502;13.426;2024-01-10T10:33:58;45.00;;;17.40;;
56927;SDS011;60850;52.502;13.426;2024-01-10T10:36:27;50.63;;;17.25;;
56927;SDS011;60850;52.502;13.426;2024-01-10T10:38:58;47.85;;;17.42;;
56927;SDS011;60850;52.502;13.426;2024-01-10T10:41:27;50.70;;;18.35;;
56927;SDS011;60850;52.502;13.426;2024-01-10T10:43:58;46.53;;;17.52;;
56927;SDS011;60850;52.502;13.426;2024-01-10T10:46:26;45.60;;;16.15;;
56927;SDS011;60850;52.502;13.426;2024-01-10T10:48:54;45.33;;;17.90;;
56927;SDS011;60850;52.502;13.426;2024-01-10T10:51:27;51.22;;;19.38;;
56927;SDS011;60850;52.502;13.426;2024-01-10T10:53:58;61.88;;;21.50;;
56927;SDS011;60850;52.502;13.426;2024-01-10T10:56:27;49.47;;;18.73;;
56927;SDS011;60850;52.502;13.426;2024-01-10T10:58:56;64.82;;;21.60;;
56927;SDS011;60850;52.502;13.426;2024-01-10T11:01:27;55.40;;;19.20;;
56927;SDS011;60850;52.502;13.426;2024-01-10T11:03:54;54.75;;;20.92;;
56927;SDS011;60850;52.502;13.426;2024-01-10T11:06:22;60.60;;;18.88;;
56927;SDS011;60850;52.502;13.426;2024-01-10T11:08:50;49.42;;;18.25;;
56927;SDS011;60850;52.502;13.426;2024-01-10T11:11:22;45.70;;;18.00;;
56927;SDS011;60850;52.502;13.426;2024-01-10T11:14:05;61.45;;;21.50;;
56927;SDS011;60850;52.502;13.426;2024-01-10T11:16:55;53.30;;;18.90;;
56927;SDS011;60850;52.502;13.426;2024-01-10T11:19:49;39.88;;;14.90;;
56927;SDS011;60850;52.502;13.426;2024-01-10T11:22:43;45.80;;;14.68;;
56927;SDS011;60850;52.502;13.426;2024-01-10T11:25:25;46.50;;;16.63;;
56927;SDS011;60850;52.502;13.426;2024-01-10T11:27:55;37.58;;;14.80;;
56927;SDS011;60850;52.502;13.426;2024-01-10T11:30:34;39.88;;;14.68;;
56927;SDS011;60850;52.502;13.426;2024-01-10T11:36:06;45.72;;;17.10;;
56927;SDS011;60850;52.502;13.426;2024-01-10T11:38:39;54.10;;;16.92;;
56927;SDS011;60850;52.502;13.426;2024-01-10T11:41:10;37.83;;;14.75;;
56927;SDS011;60850;52.502;13.426;2024-01-10T11:43:37;30.35;;;12.20;;
56927;SDS011;60850;52.502;13.426;2024-01-10T11:46:05;38.00;;;15.35;;
56927;SDS011;60850;52.502;13.426;2024-01-10T11:48:34;45.10;;;14.85;;
56927;SDS011;60850;52.502;13.426;2024-01-10T11:51:01;33.35;;;11.68;;
56927;SDS011;60850;52.502;13.426;2024-01-10T11:53:39;33.97;;;13.23;;
56927;SDS011;60850;52.502;13.426;2024-01-10T11:56:10;27.75;;;11.75;;
56927;SDS011;60850;52.502;13.426;2024-01-10T11:58:53;36.90;;;12.23;;
56927;SDS011;60850;52.502;13.426;2024-01-10T12:01:20;39.15;;;13.45;;
56927;SDS011;60850;52.502;13.426;2024-01-10T12:03:51;32.92;;;11.88;;
56927;SDS011;60850;52.502;13.426;2024-01-10T12:06:19;36.10;;;14.25;;
56927;SDS011;60850;52.502;13.426;2024-01-10T12:08:48;25.98;;;11.52;;
56927;SDS011;60850;52.502;13.426;2024-01-10T12:11:15;36.50;;;13.32;;
56927;SDS011;60850;52.502;13.426;2024-01-10T12:13:42;35.55;;;13.50;;
56927;SDS011;60850;52.502;13.426;2024-01-10T12:16:10;34.50;;;12.57;;
56927;SDS011;60850;52.502;13.426;2024-01-10T12:18:38;33.03;;;12.75;;
56927;SDS011;60850;52.502;13.426;2024-01-10T12:21:06;33.42;;;12.50;;
56927;SDS011;60850;52.502;13.426;2024-01-10T12:23:35;34.78;;;13.50;;
56927;SDS011;60850;52.502;13.426;2024-01-10T12:26:04;34.70;;;12.68;;
56927;SDS011;60850;52.502;13.426;2024-01-10T12:28:33;34.38;;;13.77;;
56927;SDS011;60850;52.502;13.426;2024-01-10T12:31:00;38.40;;;14.65;;
56927;SDS011;60850;52.502;13.426;2024-01-10T12:33:27;40.17;;;16.00;;
56927;SDS011;60850;52.502;13.426;2024-01-10T12:36:04;35.50;;;13.23;;
56927;SDS011;60850;52.502;13.426;2024-01-10T12:38:33;31.17;;;12.10;;
56927;SDS011;60850;52.502;13.426;2024-01-10T12:41:00;43.38;;;13.82;;
56927;SDS011;60850;52.502;13.426;2024-01-10T12:43:28;39.35;;;14.02;;
56927;SDS011;60850;52.502;13.426;2024-01-10T12:46:04;36.83;;;13.10;;
56927;SDS011;60850;52.502;13.426;2024-01-10T12:48:33;37.20;;;13.95;;
56927;SDS011;60850;52.502;13.426;2024-01-10T12:51:02;33.10;;;13.40;;
56927;SDS011;60850;52.502;13.426;2024-01-10T12:53:34;42.92;;;14.50;;
56927;SDS011;60850;52.502;13.426;2024-01-10T12:56:02;36.90;;;13.60;;
56927;SDS011;60850;52.502;13.426;2024-01-10T12:58:30;42.60;;;14.57;;
56927;SDS011;60850;52.502;13.426;2024-01-10T13:00:57;39.95;;;14.52;;
56927;SDS011;60850;52.502;13.426;2024-01-10T13:03:24;41.90;;;15.32;;
56927;SDS011;60850;52.502;13.426;2024-01-10T13:05:51;36.58;;;13.75;;
56927;SDS011;60850;52.502;13.426;2024-01-10T13:08:18;42.80;;;14.00;;
56927;SDS011;60850;52.502;13.426;2024-01-10T13:10:47;32.53;;;14.07;;
56927;SDS011;60850;52.502;13.426;2024-01-10T13:13:14;36.53;;;14.93;;
56927;SDS011;60850;52.502;13.426;2024-01-10T13:15:43;36.60;;;14.82;;
56927;SDS011;60850;52.502;13.426;2024-01-10T13:18:10;34.17;;;14.32;;
56927;SDS011;60850;52.502;13.426;2024-01-10T13:20:38;32.65;;;13.43;;
56927;SDS011;60850;52.502;13.426;2024-01-10T13:23:05;35.85;;;13.45;;
56927;SDS011;60850;52.502;13.426;2024-01-10T13:25:32;42.60;;;14.13;;
56927;SDS011;60850;52.502;13.426;2024-01-10T13:28:02;44.60;;;14.23;;
56927;SDS011;60850;52.502;13.426;2024-01-10T13:30:29;35.88;;;14.43;;
56927;SDS011;60850;52.502;13.426;2024-01-10T13:32:56;36.42;;;15.55;;
56927;SDS011;60850;52.502;13.426;2024-01-10T13:35:24;36.20;;;13.90;;
56927;SDS011;60850;52.502;13.426;2024-01-10T13:37:51;35.92;;;14.68;;
56927;SDS011;60850;52.502;13.426;2024-01-10T13:40:18;35.38;;;14.55;;
56927;SDS011;60850;52.502;13.426;2024-01-10T13:42:49;32.05;;;12.95;;
56927;SDS011;60850;52.502;13.426;2024-01-10T13:45:17;28.73;;;12.32;;
56927;SDS011;60850;52.502;13.426;2024-01-10T13:47:45;31.77;;;12.52;;
56927;SDS011;60850;52.502;13.426;2024-01-10T13:50:14;29.13;;;12.10;;
56927;SDS011;60850;52.502;13.426;2024-01-10T13:52:41;33.33;;;13.15;;
56927;SDS011;60850;52.502;13.426;2024-01-10T13:55:08;36.22;;;14.40;;
56927;SDS011;60850;52.502;13.426;2024-01-10T13:57:36;35.83;;;12.55;;
56927;SDS011;60850;52.502;13.426;2024-01-10T14:00:03;30.63;;;12.63;;
56927;SDS011;60850;52.502;13.426;2024-01-10T14:02:34;34.10;;;12.73;;
56927;SDS011;60850;52.502;13.426;2024-01-10T14:05:02;32.72;;;12.65;;
56927;SDS011;60850;52.502;13.426;2024-01-10T14:07:31;41.67;;;15.50;;
56927;SDS011;60850;52.502;13.426;2024-01-10T14:09:59;39.70;;;14.02;;
56927;SDS011;60850;52.502;13.426;2024-01-10T14:12:26;39.45;;;14.63;;
56927;SDS011;60850;52.502;13.426;2024-01-10T14:14:53;33.85;;;13.23;;
56927;SDS011;60850;52.502;13.426;2024-01-10T14:17:21;32.47;;;14.23;;